sensor_id;sensor_type;location;lat;lon;timestamp;pressure;altitude;pressure_sealevel;temperature;humidity
57904;BME280;43720;47.462;19.030;2023-01-30T05:00:28;100685.25;;;-3.11;86.52
57904;BME280;43720;47.462;19.030;2023-01-30T05:03:31;100691.03;;;-3.13;86.79
57904;BME280;43720;47.462;19.030;2023-01-30T05:06:34;100673.16;;;-3.13;86.88
57904;BME280;43720;47.462;19.030;2023-01-30T05:09:36;100673.34;;;-3.10;86.52
57904;BME280;43720;47.462;19.030;2023-01-30T05:12:38;100672.13;;;-3.04;86.98
57904;BME280;43720;47.462;19.030;2023-01-30T05:15:41;100663.13;;;-3.10;85.78
57904;BME280;43720;47.462;19.030;2023-01-30T05:18:43;100668.03;;;-3.13;86.21
57904;BME280;43720;47.462;19.030;2023-01-30T05:21:46;100673.88;;;-3.26;87.21
57904;BME280;43720;47.462;19.030;2023-01-30T05:24:48;100668.75;;;-3.38;88.32
57904;BME280;43720;47.462;19.030;2023-01-30T05:27:50;100664.44;;;-3.39;88.13
57904;BME280;43720;47.462;19.030;2023-01-30T05:30:53;100662.53;;;-3.30;88.62
57904;BME280;43720;47.462;19.030;2023-01-30T05:33:55;100666.44;;;-3.35;88.37
57904;BME280;43720;47.462;19.030;2023-01-30T05:36:57;100664.13;;;-3.32;88.28
57904;BME280;43720;47.462;19.030;2023-01-30T05:40:00;100656.53;;;-3.30;89.42
57904;BME280;43720;47.462;19.030;2023-01-30T05:43:02;100657.34;;;-3.31;89.13
57904;BME280;43720;47.462;19.030;2023-01-30T05:46:05;100649.03;;;-3.17;88.91
57904;BME280;43720;47.462;19.030;2023-01-30T05:49:08;100659.91;;;-3.08;87.52
57904;BME280;43720;47.462;19.030;2023-01-30T05:52:10;100659.12;;;-2.95;87.19
57904;BME280;43720;47.462;19.030;2023-01-30T05:55:12;100654.56;;;-2.99;86.32
57904;BME280;43720;47.462;19.030;2023-01-30T05:58:14;100662.69;;;-3.05;86.47
57904;BME280;43720;47.462;19.030;2023-01-30T06:01:17;100662.34;;;-3.21;87.49
57904;BME280;43720;47.462;19.030;2023-01-30T06:04:19;100654.34;;;-3.14;86.56
57904;BME280;43720;47.462;19.030;2023-01-30T06:07:21;100663.25;;;-3.09;87.21
57904;BME280;43720;47.462;19.030;2023-01-30T06:10:24;100665.69;;;-3.10;86.88
57904;BME280;43720;47.462;19.030;2023-01-30T06:13:26;100658.56;;;-3.03;86.92
57904;BME280;43720;47.462;19.030;2023-01-30T06:16:29;100655.44;;;-3.10;86.81
57904;BME280;43720;47.462;19.030;2023-01-30T06:19:31;100658.34;;;-3.17;87.06
57904;BME280;43720;47.462;19.030;2023-01-30T06:22:33;100661.00;;;-3.28;88.87
57904;BME280;43720;47.462;19.030;2023-01-30T06:25:36;100658.00;;;-3.22;88.47
57904;BME280;43720;47.462;19.030;2023-01-30T06:28:38;100657.22;;;-3.33;88.77
57904;BME280;43720;47.462;19.030;2023-01-30T06:31:40;100657.66;;;-3.27;88.85
57904;BME280;43720;47.462;19.030;2023-01-30T06:34:44;100657.56;;;-3.28;88.84
57904;BME280;43720;47.462;19.030;2023-01-30T06:37:46;100663.66;;;-3.14;88.41
57904;BME280;43720;47.462;19.030;2023-01-30T06:40:49;100648.53;;;-2.76;86.79
57904;BME280;43720;47.462;19.030;2023-01-30T06:43:51;100644.84;;;-2.56;86.07
57904;BME280;43720;47.462;19.030;2023-01-30T06:46:54;100641.38;;;-2.45;85.72
57904;BME280;43720;47.462;19.030;2023-01-30T06:49:56;100623.06;;;-2.26;84.81
57904;BME280;43720;47.462;19.030;2023-01-30T06:53:02;100628.28;;;-2.25;84.83
57904;BME280;43720;47.462;19.030;2023-01-30T06:56:05;100632.09;;;-2.06;83.49
57904;BME280;43720;47.462;19.030;2023-01-30T06:59:08;100648.44;;;-1.92;83.58
57904;BME280;43720;47.462;19.030;2023-01-30T07:02:11;100646.81;;;-2.04;84.53
57904;BME280;43720;47.462;19.030;2023-01-30T07:05:14;100636.16;;;-1.85;83.67
57904;BME280;43720;47.462;19.030;2023-01-30T07:08:17;100628.97;;;-1.77;82.92
57904;BME280;43720;47.462;19.030;2023-01-30T07:11:20;100626.66;;;-1.61;83.31
57904;BME280;43720;47.462;19.030;2023-01-30T07:14:23;100624.28;;;-1.58;83.04
57904;BME280;43720;47.462;19.030;2023-01-30T07:17:25;100630.75;;;-1.76;83.26
57904;BME280;43720;47.462;19.030;2023-01-30T07:20:27;100631.94;;;-1.71;83.13
57904;BME280;43720;47.462;19.030;2023-01-30T07:23:32;100632.56;;;-1.62;83.34
57904;BME280;43720;47.462;19.030;2023-01-30T07:26:37;100628.41;;;-1.60;84.14
57904;BME280;43720;47.462;19.030;2023-01-30T07:29:42;100628.84;;;-1.40;83.87
57904;BME280;43720;47.462;19.030;2023-01-30T07:32:48;100625.84;;;-1.60;85.00
57904;BME280;43720;47.462;19.030;2023-01-30T07:35:51;100633.09;;;-1.54;85.87
57904;BME280;43720;47.462;19.030;2023-01-30T07:38:53;100621.16;;;-1.40;85.20
57904;BME280;43720;47.462;19.030;2023-01-30T07:41:59;100615.06;;;-1.29;85.17
57904;BME280;43720;47.462;19.030;2023-01-30T07:45:02;100617.06;;;-1.12;83.75
57904;BME280;43720;47.462;19.030;2023-01-30T07:48:17;100614.06;;;-1.05;83.48
57904;BME280;43720;47.462;19.030;2023-01-30T07:51:20;100611.31;;;-0.81;82.62
57904;BME280;43720;47.462;19.030;2023-01-30T07:54:22;100606.19;;;-0.94;82.85
57904;BME280;43720;47.462;19.030;2023-01-30T07:57:24;100602.91;;;-0.79;82.42
57904;BME280;43720;47.462;19.030;2023-01-30T08:00:27;100602.81;;;-0.80;82.23
57904;BME280;43720;47.462;19.030;2023-01-30T08:03:29;100599.06;;;-0.72;82.97
57904;BME280;43720;47.462;19.030;2023-01-30T08:06:32;100595.88;;;-0.68;83.80
57904;BME280;43720;47.462;19.030;2023-01-30T08:09:40;100601.59;;;-0.59;82.53
57904;BME280;43720;47.462;19.030;2023-01-30T08:12:42;100591.50;;;-0.56;83.10
57904;BME280;43720;47.462;19.030;2023-01-30T08:15:44;100590.69;;;-0.41;82.25
57904;BME280;43720;47.462;19.030;2023-01-30T08:18:46;100578.66;;;-0.28;82.51
57904;BME280;43720;47.462;19.030;2023-01-30T08:21:49;100553.19;;;-0.25;81.77
57904;BME280;43720;47.462;19.030;2023-01-30T08:24:51;100538.66;;;-0.24;81.45
57904;BME280;43720;47.462;19.030;2023-01-30T08:27:54;100526.06;;;-0.34;83.08
57904;BME280;43720;47.462;19.030;2023-01-30T08:30:57;100537.16;;;-0.20;82.84
57904;BME280;43720;47.462;19.030;2023-01-30T08:33:59;100532.84;;;-0.07;82.88
57904;BME280;43720;47.462;19.030;2023-01-30T08:37:02;100530.00;;;0.18;82.13
57904;BME280;43720;47.462;19.030;2023-01-30T08:40:05;100540.03;;;0.14;80.64
57904;BME280;43720;47.462;19.030;2023-01-30T08:43:08;100521.28;;;-0.28;82.81
57904;BME280;43720;47.462;19.030;2023-01-30T08:46:11;100531.75;;;-0.25;83.05
57904;BME280;43720;47.462;19.030;2023-01-30T08:49:13;100534.84;;;-0.16;82.34
57904;BME280;43720;47.462;19.030;2023-01-30T08:52:16;100529.63;;;-0.17;82.61
57904;BME280;43720;47.462;19.030;2023-01-30T08:55:18;100521.31;;;-0.13;82.86
57904;BME280;43720;47.462;19.030;2023-01-30T08:58:22;100525.78;;;0.04;83.19
57904;BME280;43720;47.462;19.030;2023-01-30T09:01:24;100516.34;;;0.34;81.20
57904;BME280;43720;47.462;19.030;2023-01-30T09:04:29;100519.38;;;0.42;80.32
57904;BME280;43720;47.462;19.030;2023-01-30T09:07:32;100523.34;;;0.66;79.69
57904;BME280;43720;47.462;19.030;2023-01-30T09:10:35;100519.13;;;0.83;81.75
57904;BME280;43720;47.462;19.030;2023-01-30T09:13:37;100528.66;;;1.01;80.36
57904;BME280;43720;47.462;19.030;2023-01-30T09:16:48;100519.59;;;1.07;80.46
57904;BME280;43720;47.462;19.030;2023-01-30T09:19:56;100517.78;;;1.21;80.51
57904;BME280;43720;47.462;19.030;2023-01-30T09:23:00;100495.56;;;1.39;78.98
57904;BME280;43720;47.462;19.030;2023-01-30T09:26:03;100508.44;;;1.39;78.45
57904;BME280;43720;47.462;19.030;2023-01-30T09:29:06;100494.25;;;1.31;77.83
57904;BME280;43720;47.462;19.030;2023-01-30T09:32:08;100493.47;;;1.32;77.89
57904;BME280;43720;47.462;19.030;2023-01-30T09:35:10;100493.72;;;1.20;79.49
57904;BME280;43720;47.462;19.030;2023-01-30T09:38:13;100485.72;;;1.16;79.40
57904;BME280;43720;47.462;19.030;2023-01-30T09:51:38;100464.97;;;1.45;79.12
57904;BME280;43720;47.462;19.030;2023-01-30T09:54:43;100446.53;;;1.38;79.04
57904;BME280;43720;47.462;19.030;2023-01-30T09:57:47;100455.97;;;1.21;79.87
57904;BME280;43720;47.462;19.030;2023-01-30T10:00:52;100442.28;;;1.22;79.55
57904;BME280;43720;47.462;19.030;2023-01-30T10:04:05;100436.97;;;1.35;79.29
57904;BME280;43720;47.462;19.030;2023-01-30T10:10:45;100430.94;;;1.35;79.96
57904;BME280;43720;47.462;19.030;2023-01-30T10:17:45;100405.78;;;1.47;80.48
57904;BME280;43720;47.462;19.030;2023-01-30T10:27:22;100391.25;;;2.35;77.12
57904;BME280;43720;47.462;19.030;2023-01-30T10:30:26;100379.87;;;2.50;75.40
57904;BME280;43720;47.462;19.030;2023-01-30T10:33:58;100368.59;;;2.48;74.54
57904;BME280;43720;47.462;19.030;2023-01-30T10:41:04;100354.03;;;2.30;75.40
57904;BME280;43720;47.462;19.030;2023-01-30T10:44:11;100349.41;;;2.41;75.88
57904;BME280;43720;47.462;19.030;2023-01-30T10:47:27;100345.53;;;2.51;74.53
57904;BME280;43720;47.462;19.030;2023-01-30T10:50:55;100334.53;;;2.55;74.77
57904;BME280;43720;47.462;19.030;2023-01-30T10:54:15;100328.34;;;2.51;74.69
57904;BME280;43720;47.462;19.030;2023-01-30T11:01:06;100301.66;;;2.70;75.02
57904;BME280;43720;47.462;19.030;2023-01-30T11:07:21;100282.38;;;2.81;74.86
57904;BME280;43720;47.462;19.030;2023-01-30T11:10:25;100282.47;;;2.83;74.31
57904;BME280;43720;47.462;19.030;2023-01-30T11:13:30;100277.91;;;2.77;74.52
57904;BME280;43720;47.462;19.030;2023-01-30T11:16:54;100268.81;;;2.66;75.39
57904;BME280;43720;47.462;19.030;2023-01-30T11:20:01;100258.63;;;2.69;75.87
57904;BME280;43720;47.462;19.030;2023-01-30T11:23:05;100254.13;;;2.65;76.68
57904;BME280;43720;47.462;19.030;2023-01-30T11:26:18;100249.38;;;2.74;76.46
57904;BME280;43720;47.462;19.030;2023-01-30T11:29:26;100240.34;;;2.84;76.98
57904;BME280;43720;47.462;19.030;2023-01-30T11:33:05;100235.91;;;2.81;76.83
57904;BME280;43720;47.462;19.030;2023-01-30T11:36:33;100227.00;;;2.75;77.85
57904;BME280;43720;47.462;19.030;2023-01-30T11:39:36;100217.78;;;2.80;78.37
57904;BME280;43720;47.462;19.030;2023-01-30T11:42:43;100214.56;;;2.85;77.29
57904;BME280;43720;47.462;19.030;2023-01-30T11:45:47;100206.97;;;2.88;77.39
57904;BME280;43720;47.462;19.030;2023-01-30T11:48:58;100202.44;;;2.83;77.82
57904;BME280;43720;47.462;19.030;2023-01-30T11:52:25;100202.97;;;2.95;78.85
57904;BME280;43720;47.462;19.030;2023-01-30T11:55:32;100193.03;;;2.85;78.44
57904;BME280;43720;47.462;19.030;2023-01-30T11:58:38;100187.38;;;2.93;78.53
57904;BME280;43720;47.462;19.030;2023-01-30T12:01:42;100189.84;;;2.90;77.71
57904;BME280;43720;47.462;19.030;2023-01-30T12:04:46;100181.78;;;2.83;77.69
57904;BME280;43720;47.462;19.030;2023-01-30T12:08:11;100178.41;;;2.64;77.93
57904;BME280;43720;47.462;19.030;2023-01-30T12:14:39;100170.72;;;2.45;78.23
57904;BME280;43720;47.462;19.030;2023-01-30T12:24:21;100163.22;;;2.51;78.15
57904;BME280;43720;47.462;19.030;2023-01-30T12:27:47;100148.50;;;2.49;78.58
57904;BME280;43720;47.462;19.030;2023-01-30T12:31:18;100140.22;;;2.56;78.12
57904;BME280;43720;47.462;19.030;2023-01-30T12:34:23;100126.91;;;2.47;78.92
57904;BME280;43720;47.462;19.030;2023-01-30T12:37:49;100103.31;;;2.58;77.86
57904;BME280;43720;47.462;19.030;2023-01-30T12:44:41;100101.94;;;2.87;78.45
57904;BME280;43720;47.462;19.030;2023-01-30T12:51:35;100098.09;;;2.99;76.58
57904;BME280;43720;47.462;19.030;2023-01-30T13:01:27;100107.25;;;3.13;75.53
57904;BME280;43720;47.462;19.030;2023-01-30T13:08:23;100088.97;;;3.29;74.90
57904;BME280;43720;47.462;19.030;2023-01-30T13:11:49;100072.06;;;3.15;76.13
57904;BME280;43720;47.462;19.030;2023-01-30T13:15:14;100067.19;;;3.23;75.99
57904;BME280;43720;47.462;19.030;2023-01-30T13:18:25;100067.06;;;3.19;75.00
57904;BME280;43720;47.462;19.030;2023-01-30T13:28:02;100065.84;;;2.89;77.07
57904;BME280;43720;47.462;19.030;2023-01-30T13:31:08;100041.75;;;2.88;77.95
57904;BME280;43720;47.462;19.030;2023-01-30T13:34:19;100055.97;;;3.00;75.67
57904;BME280;43720;47.462;19.030;2023-01-30T13:37:23;100055.50;;;3.10;74.45
57904;BME280;43720;47.462;19.030;2023-01-30T13:40:38;100054.72;;;3.12;74.14
57904;BME280;43720;47.462;19.030;2023-01-30T13:43:47;100052.22;;;3.14;72.79
57904;BME280;43720;47.462;19.030;2023-01-30T13:46:51;100046.09;;;3.12;71.92
57904;BME280;43720;47.462;19.030;2023-01-30T13:53:45;100052.28;;;3.15;71.30
57904;BME280;43720;47.462;19.030;2023-01-30T14:03:26;100023.50;;;3.29;71.34
57904;BME280;43720;47.462;19.030;2023-01-30T14:06:34;100033.19;;;3.34;70.63
57904;BME280;43720;47.462;19.030;2023-01-30T14:09:44;100028.84;;;3.33;70.51
57904;BME280;43720;47.462;19.030;2023-01-30T14:12:48;100025.56;;;3.15;71.23
57904;BME280;43720;47.462;19.030;2023-01-30T14:19:28;100034.94;;;3.13;73.07
57904;BME280;43720;47.462;19.030;2023-01-30T14:22:58;100029.31;;;3.01;72.41
57904;BME280;43720;47.462;19.030;2023-01-30T14:26:02;100026.31;;;3.12;73.91
57904;BME280;43720;47.462;19.030;2023-01-30T14:29:06;100025.56;;;3.15;72.43
57904;BME280;43720;47.462;19.030;2023-01-30T14:35:19;100037.91;;;3.22;72.89
57904;BME280;43720;47.462;19.030;2023-01-30T14:38:23;100038.88;;;3.03;74.59
57904;BME280;43720;47.462;19.030;2023-01-30T14:41:27;100042.31;;;3.02;74.70
57904;BME280;43720;47.462;19.030;2023-01-30T14:44:57;100036.22;;;3.02;75.39
57904;BME280;43720;47.462;19.030;2023-01-30T14:51:47;100031.41;;;2.88;76.71
57904;BME280;43720;47.462;19.030;2023-01-30T14:54:50;100040.78;;;2.86;78.80
57904;BME280;43720;47.462;19.030;2023-01-30T14:57:55;100037.81;;;2.98;77.25
57904;BME280;43720;47.462;19.030;2023-01-30T15:00:59;100031.47;;;2.90;77.43
57904;BME280;43720;47.462;19.030;2023-01-30T15:04:02;100036.44;;;2.85;78.13
57904;BME280;43720;47.462;19.030;2023-01-30T15:07:25;100042.44;;;2.84;78.90
57904;BME280;43720;47.462;19.030;2023-01-30T15:14:07;100041.13;;;2.73;78.55
57904;BME280;43720;47.462;19.030;2023-01-30T15:17:23;100048.50;;;2.64;79.31
57904;BME280;43720;47.462;19.030;2023-01-30T15:33:58;100045.22;;;2.47;80.89
57904;BME280;43720;47.462;19.030;2023-01-30T15:37:00;100050.87;;;2.59;80.07
57904;BME280;43720;47.462;19.030;2023-01-30T15:47:13;100057.06;;;2.63;79.89
57904;BME280;43720;47.462;19.030;2023-01-30T15:50:18;100068.19;;;2.62;80.02
57904;BME280;43720;47.462;19.030;2023-01-30T15:53:25;100068.06;;;2.59;80.76
57904;BME280;43720;47.462;19.030;2023-01-30T15:56:29;100068.75;;;2.55;83.29
57904;BME280;43720;47.462;19.030;2023-01-30T15:59:34;100069.22;;;2.44;84.87
57904;BME280;43720;47.462;19.030;2023-01-30T16:02:41;100073.97;;;2.35;86.74
57904;BME280;43720;47.462;19.030;2023-01-30T16:05:49;100076.03;;;2.23;88.70
57904;BME280;43720;47.462;19.030;2023-01-30T16:09:00;100081.06;;;2.20;88.84
57904;BME280;43720;47.462;19.030;2023-01-30T16:12:03;100079.03;;;2.13;90.65
57904;BME280;43720;47.462;19.030;2023-01-30T16:15:28;100076.84;;;2.22;90.31
57904;BME280;43720;47.462;19.030;2023-01-30T16:18:39;100066.72;;;2.06;92.14
57904;BME280;43720;47.462;19.030;2023-01-30T16:21:44;100066.22;;;2.14;91.25
57904;BME280;43720;47.462;19.030;2023-01-30T16:24:52;100071.88;;;2.06;92.41
57904;BME280;43720;47.462;19.030;2023-01-30T16:27:56;100076.94;;;2.04;92.52
57904;BME280;43720;47.462;19.030;2023-01-30T16:31:04;100073.63;;;1.87;92.54
57904;BME280;43720;47.462;19.030;2023-01-30T16:34:36;100074.16;;;2.00;93.51
